createdAt,value
2022-11-27T00:02:13.320Z,0.82
2022-11-27T00:04:44.416Z,0.82
2022-11-27T00:07:13.501Z,0.82
2022-11-27T00:09:43.360Z,0.84
2022-11-27T00:12:11.948Z,0.84
2022-11-27T00:14:44.093Z,0.81
2022-11-27T00:17:12.803Z,0.84
2022-11-27T00:19:44.571Z,0.81
2022-11-27T00:22:15.872Z,0.85
2022-11-27T00:24:45.205Z,0.84
2022-11-27T00:27:14.093Z,0.85
2022-11-27T00:29:43.147Z,0.82
2022-11-27T00:32:12.560Z,0.85
2022-11-27T00:34:42.538Z,0.82
2022-11-27T00:37:11.668Z,0.84
2022-11-27T00:39:40.274Z,0.85
2022-11-27T00:42:11.318Z,0.88
2022-11-27T00:44:40.115Z,0.88
2022-11-27T00:47:11.847Z,0.87
2022-11-27T00:49:43.725Z,0.89
2022-11-27T00:52:15.048Z,0.88
2022-11-27T00:54:43.839Z,0.92
2022-11-27T00:57:12.629Z,0.91
2022-11-27T00:59:45.554Z,0.91
2022-11-27T01:02:14.298Z,0.93
2022-11-27T01:04:45.961Z,0.93
2022-11-27T01:07:22.394Z,0.92
2022-11-27T01:09:57.009Z,0.92
2022-11-27T01:12:25.736Z,0.92
2022-11-27T01:14:55.258Z,0.92
2022-11-27T01:17:29.291Z,0.93
2022-11-27T01:19:58.066Z,0.93
2022-11-27T01:22:26.879Z,0.93
2022-11-27T01:25:02.940Z,0.92
2022-11-27T01:27:34.714Z,0.91
2022-11-27T01:30:09.221Z,0.92
2022-11-27T01:32:39.596Z,0.93
2022-11-27T01:35:13.120Z,0.93
2022-11-27T01:37:45.092Z,0.96
2022-11-27T01:40:14.179Z,0.93
2022-11-27T01:42:43.480Z,0.95
2022-11-27T01:45:16.342Z,0.96
2022-11-27T01:47:49.734Z,0.98
2022-11-27T01:50:28.555Z,0.93
2022-11-27T01:53:07.006Z,0.95
2022-11-27T01:55:40.416Z,0.95
2022-11-27T01:58:16.556Z,0.92
2022-11-27T02:00:47.731Z,0.92
2022-11-27T02:03:18.954Z,0.92
2022-11-27T02:05:47.787Z,0.91
2022-11-27T02:08:18.254Z,0.92
2022-11-27T02:10:59.782Z,0.92
2022-11-27T02:13:38.727Z,0.92
2022-11-27T02:16:19.049Z,0.87
2022-11-27T02:18:55.964Z,0.88
2022-11-27T02:21:36.787Z,0.85
2022-11-27T02:24:38.366Z,0.85
2022-11-27T02:27:51.939Z,0.87
2022-11-27T02:30:20.986Z,0.88
2022-11-27T02:32:53.427Z,0.85
2022-11-27T02:35:28.294Z,0.87
2022-11-27T02:38:02.663Z,0.88
2022-11-27T02:40:37.713Z,0.88
2022-11-27T02:43:09.578Z,0.89
2022-11-27T02:45:51.301Z,0.91
2022-11-27T02:48:25.020Z,0.92
2022-11-27T02:50:56.659Z,0.91
2022-11-27T02:53:29.443Z,0.91
2022-11-27T02:56:00.756Z,0.92
2022-11-27T02:58:33.132Z,0.92
2022-11-27T03:01:07.019Z,0.92
2022-11-27T03:03:43.384Z,0.92
2022-11-27T03:06:14.896Z,0.95
2022-11-27T03:08:50.913Z,0.93
2022-11-27T03:11:19.666Z,0.93
2022-11-27T03:13:51.567Z,0.95
2022-11-27T03:16:36.498Z,0.95
2022-11-27T03:19:15.715Z,0.95
2022-11-27T03:21:51.800Z,0.93
2022-11-27T03:24:20.567Z,0.93
2022-11-27T03:26:55.303Z,0.96
2022-11-27T03:29:28.249Z,0.93
2022-11-27T03:32:03.026Z,0.93
2022-11-27T03:34:35.482Z,0.95
2022-11-27T03:37:06.046Z,0.93
2022-11-27T03:39:36.290Z,0.95
2022-11-27T03:42:17.006Z,0.92
2022-11-27T03:44:52.349Z,0.95
2022-11-27T03:47:34.625Z,0.93
2022-11-27T03:50:18.652Z,0.93
2022-11-27T03:52:56.478Z,0.95
2022-11-27T03:55:42.580Z,0.93
2022-11-27T03:58:20.897Z,0.96
2022-11-27T04:00:52.309Z,0.98
2022-11-27T04:03:27.210Z,0.96
2022-11-27T04:05:56.209Z,0.96
2022-11-27T04:08:30.755Z,0.95
2022-11-27T04:10:59.342Z,0.96
2022-11-27T04:13:29.655Z,0.95
2022-11-27T04:16:01.036Z,0.96
2022-11-27T04:18:29.800Z,0.95
2022-11-27T04:21:04.650Z,0.96
2022-11-27T04:23:38.073Z,0.96
2022-11-27T04:26:07.429Z,0.95
2022-11-27T04:28:43.203Z,0.98
2022-11-27T04:31:13.743Z,0.95
2022-11-27T04:33:45.635Z,0.98
2022-11-27T04:36:14.437Z,0.96
2022-11-27T04:38:43.902Z,0.96
2022-11-27T04:41:12.676Z,0.96
2022-11-27T04:43:53.120Z,0.98
2022-11-27T04:46:26.769Z,0.98
2022-11-27T04:49:00.645Z,0.98
2022-11-27T04:51:36.175Z,0.98
2022-11-27T04:54:04.405Z,0.98
2022-11-27T04:56:35.303Z,0.98
2022-11-27T04:59:05.092Z,0.98
2022-11-27T05:01:38.135Z,1.00
2022-11-27T05:04:06.737Z,1.00
2022-11-27T05:06:39.484Z,0.99
2022-11-27T05:09:08.775Z,1.00
2022-11-27T05:11:40.533Z,1.02
2022-11-27T05:14:16.227Z,1.02
2022-11-27T05:16:47.577Z,1.00
2022-11-27T05:19:18.912Z,1.00
2022-11-27T05:21:49.415Z,1.03
2022-11-27T05:24:20.553Z,1.02
2022-11-27T05:26:49.775Z,1.02
2022-11-27T05:29:20.919Z,1.03
2022-11-27T05:31:49.802Z,1.06
2022-11-27T05:34:18.782Z,1.07
2022-11-27T05:36:50.251Z,1.05
2022-11-27T05:39:18.867Z,1.07
2022-11-27T05:41:47.496Z,1.07
2022-11-27T05:44:16.133Z,1.07
2022-11-27T05:46:44.928Z,1.07
2022-11-27T05:49:15.630Z,1.07
2022-11-27T05:51:50.736Z,1.10
2022-11-27T05:54:20.574Z,1.10
2022-11-27T05:56:49.279Z,1.10
2022-11-27T05:59:17.957Z,1.09
2022-11-27T06:01:49.216Z,1.12
2022-11-27T06:04:20.166Z,1.12
2022-11-27T06:06:51.661Z,1.13
2022-11-27T06:09:20.124Z,1.12
2022-11-27T06:11:48.947Z,1.12
2022-11-27T06:14:19.473Z,1.13
2022-11-27T06:16:48.720Z,1.13
2022-11-27T06:19:20.115Z,1.15
2022-11-27T06:21:50.566Z,1.15
2022-11-27T06:24:19.132Z,1.13
2022-11-27T06:26:48.527Z,1.15
2022-11-27T06:29:17.322Z,1.18
2022-11-27T06:31:45.980Z,1.15
2022-11-27T06:34:15.146Z,1.18
2022-11-27T06:36:46.472Z,1.19
2022-11-27T06:39:15.158Z,1.20
2022-11-27T06:41:43.834Z,1.19
2022-11-27T06:44:12.653Z,1.22
2022-11-27T06:46:40.458Z,1.23
2022-11-27T06:49:10.127Z,1.25
2022-11-27T06:51:38.682Z,1.25
2022-11-27T06:54:08.359Z,1.26
2022-11-27T06:56:37.067Z,1.29
2022-11-27T06:59:06.349Z,1.29
2022-11-27T07:01:36.490Z,1.32
2022-11-27T07:04:05.867Z,1.33
2022-11-27T07:06:39.258Z,1.34
2022-11-27T07:09:10.235Z,1.34
2022-11-27T07:11:39.744Z,1.37
2022-11-27T07:14:09.845Z,1.39
2022-11-27T07:16:38.639Z,1.42
2022-11-27T07:19:11.017Z,1.44
2022-11-27T07:21:41.155Z,1.46
2022-11-27T07:24:09.856Z,1.47
2022-11-27T07:26:39.122Z,1.51
2022-11-27T07:29:10.215Z,1.53
2022-11-27T07:31:38.875Z,1.57
2022-11-27T07:34:14.098Z,1.58
2022-11-27T07:36:44.687Z,1.60
2022-11-27T07:39:13.272Z,1.65
2022-11-27T07:41:46.750Z,1.68
2022-11-27T07:44:15.614Z,1.71
2022-11-27T07:46:44.280Z,1.77
2022-11-27T07:49:12.897Z,1.78
2022-11-27T07:51:41.493Z,1.79
2022-11-27T07:54:10.963Z,1.83
2022-11-27T07:56:39.895Z,1.86
2022-11-27T07:59:08.645Z,1.89
2022-11-27T08:01:37.425Z,1.92
2022-11-27T08:04:06.550Z,1.93
2022-11-27T08:06:35.871Z,1.96
2022-11-27T08:09:06.176Z,1.99
2022-11-27T08:11:35.687Z,2.03
2022-11-27T08:14:08.754Z,2.09
2022-11-27T08:16:37.807Z,2.10
2022-11-27T08:19:07.088Z,2.16
2022-11-27T08:21:35.936Z,2.17
2022-11-27T08:24:05.494Z,2.26
2022-11-27T08:26:37.219Z,2.30
2022-11-27T08:29:06.141Z,2.36
2022-11-27T08:31:36.291Z,2.41
2022-11-27T08:34:05.100Z,2.44
2022-11-27T08:36:36.391Z,2.50
2022-11-27T08:39:07.821Z,2.54
2022-11-27T08:41:37.044Z,2.58
2022-11-27T08:44:09.360Z,2.60
2022-11-27T08:46:44.950Z,2.65
2022-11-27T08:49:13.636Z,2.67
2022-11-27T08:51:42.287Z,2.69
2022-11-27T08:54:12.522Z,2.73
2022-11-27T08:56:42.163Z,2.76
2022-11-27T08:59:10.943Z,2.79
2022-11-27T09:01:40.115Z,2.86
2022-11-27T09:04:13.402Z,2.92
2022-11-27T09:06:42.626Z,2.98
2022-11-27T09:09:11.587Z,3.04
2022-11-27T09:11:41.131Z,3.10
2022-11-27T09:14:12.304Z,3.17
2022-11-27T09:16:40.998Z,3.23
2022-11-27T09:19:09.951Z,3.30
2022-11-27T09:21:39.225Z,3.32
2022-11-27T09:24:13.237Z,3.38
2022-11-27T09:26:41.747Z,3.43
2022-11-27T09:29:10.339Z,3.45
2022-11-27T09:31:39.330Z,3.50
2022-11-27T09:34:08.399Z,3.52
2022-11-27T09:36:37.911Z,3.57
2022-11-27T09:39:06.524Z,3.57
2022-11-27T09:41:51.501Z,3.58
2022-11-27T09:44:39.080Z,3.63
2022-11-27T09:47:17.795Z,3.66
2022-11-27T09:49:50.594Z,3.71
2022-11-27T09:52:25.324Z,3.69
2022-11-27T09:55:00.136Z,3.73
2022-11-27T09:57:34.459Z,3.78
2022-11-27T10:00:12.372Z,3.79
2022-11-27T10:02:46.202Z,3.79
2022-11-27T10:05:17.218Z,3.83
2022-11-27T10:08:07.287Z,3.86
2022-11-27T10:10:44.209Z,3.89
2022-11-27T10:13:35.258Z,3.96
2022-11-27T10:16:10.700Z,4.03
2022-11-27T10:18:46.419Z,4.07
2022-11-27T10:21:23.441Z,4.16
2022-11-27T10:24:00.380Z,4.20
2022-11-27T10:26:33.967Z,4.25
2022-11-27T10:29:11.882Z,4.32
2022-11-27T10:31:48.419Z,4.41
2022-11-27T10:34:26.163Z,4.45
2022-11-27T10:36:58.745Z,4.49
2022-11-27T10:39:33.533Z,4.56
2022-11-27T10:42:13.536Z,4.61
2022-11-27T10:44:45.963Z,4.66
2022-11-27T10:47:15.695Z,4.71
2022-11-27T10:49:47.176Z,4.75
2022-11-27T10:52:18.154Z,4.76
2022-11-27T10:54:53.004Z,4.77
2022-11-27T10:57:57.517Z,4.82
2022-11-27T11:00:28.156Z,4.84
2022-11-27T11:03:05.087Z,4.84
2022-11-27T11:06:04.122Z,4.87
2022-11-27T11:08:25.670Z,4.90
2022-11-27T11:11:25.003Z,4.87
2022-11-27T11:13:55.170Z,4.87
2022-11-27T11:16:31.896Z,4.87
2022-11-27T11:19:05.593Z,4.91
2022-11-27T11:21:39.897Z,4.90
2022-11-27T11:24:22.008Z,4.91
2022-11-27T11:26:58.568Z,4.96
2022-11-27T11:29:34.164Z,4.96
2022-11-27T11:32:10.040Z,4.96
2022-11-27T11:34:45.328Z,4.94
2022-11-27T11:37:24.764Z,4.97
2022-11-27T11:40:00.387Z,4.97
2022-11-27T11:42:31.879Z,4.97
2022-11-27T11:45:08.700Z,4.93
2022-11-27T11:47:45.591Z,4.90
2022-11-27T11:50:18.767Z,4.91
2022-11-27T11:52:59.656Z,4.94
2022-11-27T11:55:35.463Z,4.91
2022-11-27T11:58:21.020Z,4.90
2022-11-27T12:03:58.233Z,4.97
2022-11-27T12:06:47.964Z,4.97
2022-11-27T12:09:36.214Z,4.99
2022-11-27T12:12:21.082Z,4.99
2022-11-27T12:14:54.855Z,4.97
2022-11-27T12:17:45.281Z,4.96
2022-11-27T12:20:24.578Z,4.96
2022-11-27T12:23:22.897Z,4.99
2022-11-27T12:26:03.166Z,4.99
2022-11-27T12:29:02.515Z,5.00
2022-11-27T12:31:49.437Z,4.99
2022-11-27T12:34:29.647Z,4.97
2022-11-27T12:37:14.079Z,4.97
2022-11-27T12:40:00.509Z,4.97
2022-11-27T12:42:42.442Z,4.94
2022-11-27T12:45:19.708Z,4.91
2022-11-27T12:47:53.018Z,4.91
2022-11-27T12:50:27.152Z,4.91
2022-11-27T12:53:08.846Z,4.91
2022-11-27T12:55:40.388Z,4.89
2022-11-27T12:58:16.266Z,4.87
2022-11-27T13:00:45.393Z,4.90
2022-11-27T13:03:24.919Z,4.87
2022-11-27T13:05:59.500Z,4.83
2022-11-27T13:08:34.784Z,4.83
2022-11-27T13:11:08.637Z,4.83
2022-11-27T13:13:42.986Z,4.83
2022-11-27T13:16:19.832Z,4.82
2022-11-27T13:18:56.599Z,4.79
2022-11-27T13:21:33.813Z,4.77
2022-11-27T13:24:04.354Z,4.79
2022-11-27T13:26:40.038Z,4.80
2022-11-27T13:29:19.280Z,4.80
2022-11-27T13:31:55.590Z,4.82
2022-11-27T13:34:29.291Z,4.87
2022-11-27T13:37:01.607Z,4.84
2022-11-27T13:39:34.079Z,4.86
2022-11-27T13:42:11.512Z,4.86
2022-11-27T13:44:44.435Z,4.86
2022-11-27T13:47:17.389Z,4.84
2022-11-27T13:49:47.526Z,4.86
2022-11-27T13:52:18.688Z,4.83
2022-11-27T13:54:55.237Z,4.84
2022-11-27T13:57:29.605Z,4.82
2022-11-27T14:00:07.781Z,4.82
2022-11-27T14:02:49.232Z,4.82
2022-11-27T14:05:21.368Z,4.80
2022-11-27T14:07:53.488Z,4.79
2022-11-27T14:10:25.470Z,4.77
2022-11-27T14:12:57.645Z,4.76
2022-11-27T14:15:29.148Z,4.72
2022-11-27T14:18:14.622Z,4.65
2022-11-27T14:20:50.149Z,4.62
2022-11-27T14:23:29.231Z,4.55
2022-11-27T14:26:20.400Z,4.52
2022-11-27T14:28:52.100Z,4.51
2022-11-27T14:31:29.309Z,4.47
2022-11-27T14:34:16.165Z,4.42
2022-11-27T14:36:45.699Z,4.38
2022-11-27T14:39:26.479Z,4.34
2022-11-27T14:42:00.025Z,4.29
2022-11-27T14:44:31.129Z,4.24
2022-11-27T14:47:05.220Z,4.21
2022-11-27T14:49:35.430Z,4.17
2022-11-27T14:52:13.609Z,4.11
2022-11-27T14:54:44.388Z,4.09
2022-11-27T14:57:20.810Z,4.07
2022-11-27T15:00:00.380Z,4.04
2022-11-27T15:02:31.305Z,4.01
2022-11-27T15:05:05.484Z,4.00
2022-11-27T15:07:47.926Z,3.97
2022-11-27T15:10:27.993Z,3.93
2022-11-27T15:12:58.300Z,3.93
2022-11-27T15:15:28.625Z,3.90
2022-11-27T15:18:00.289Z,3.89
2022-11-27T15:20:37.214Z,3.88
2022-11-27T15:23:16.634Z,3.85
2022-11-27T15:25:47.166Z,3.83
2022-11-27T15:28:50.111Z,3.78
2022-11-27T15:31:26.158Z,3.75
2022-11-27T15:34:03.476Z,3.71
2022-11-27T15:36:42.900Z,3.66
2022-11-27T15:39:20.101Z,3.66
2022-11-27T15:41:54.623Z,3.62
2022-11-27T15:44:23.088Z,3.59
2022-11-27T15:46:53.044Z,3.58
2022-11-27T15:49:23.834Z,3.57
2022-11-27T15:51:54.418Z,3.52
2022-11-27T15:54:25.738Z,3.52
2022-11-27T15:56:54.419Z,3.48
2022-11-27T15:59:25.043Z,3.47
2022-11-27T16:01:54.941Z,3.43
2022-11-27T16:04:23.528Z,3.43
2022-11-27T16:06:52.803Z,3.40
2022-11-27T16:09:21.730Z,3.35
2022-11-27T16:11:50.651Z,3.32
2022-11-27T16:14:19.348Z,3.31
2022-11-27T16:16:48.454Z,3.27
2022-11-27T16:19:17.207Z,3.23
2022-11-27T16:21:45.884Z,3.24
2022-11-27T16:24:15.164Z,3.18
2022-11-27T16:26:43.797Z,3.17
2022-11-27T16:29:12.784Z,3.18
2022-11-27T16:31:41.639Z,3.14
2022-11-27T16:34:10.345Z,3.13
2022-11-27T16:36:46.327Z,3.11
2022-11-27T16:39:17.701Z,3.10
2022-11-27T16:41:46.765Z,3.07
2022-11-27T16:44:16.191Z,3.07
2022-11-27T16:46:45.642Z,3.09
2022-11-27T16:49:18.080Z,3.04
2022-11-27T16:51:46.710Z,3.06
2022-11-27T16:54:15.916Z,3.04
2022-11-27T16:56:45.239Z,3.04
2022-11-27T16:59:15.674Z,3.06
2022-11-27T17:01:45.385Z,3.04
2022-11-27T17:04:18.092Z,3.04
2022-11-27T17:06:48.489Z,3.04
2022-11-27T17:09:18.119Z,3.02
2022-11-27T17:11:48.391Z,3.02
2022-11-27T17:14:19.067Z,3.00
2022-11-27T17:16:48.510Z,3.00
2022-11-27T17:19:18.008Z,3.00
2022-11-27T17:21:47.181Z,2.98
2022-11-27T17:24:16.946Z,2.99
2022-11-27T17:26:48.048Z,2.96
2022-11-27T17:29:20.492Z,2.96
2022-11-27T17:31:50.534Z,2.96
2022-11-27T17:34:20.422Z,2.96
2022-11-27T17:36:53.097Z,2.96
2022-11-27T17:39:27.137Z,2.96
2022-11-27T17:41:57.824Z,2.95
2022-11-27T17:44:27.939Z,2.95
2022-11-27T17:46:59.396Z,2.93
2022-11-27T17:49:32.537Z,2.95
2022-11-27T17:52:06.403Z,2.95
2022-11-27T17:54:37.096Z,2.93
2022-11-27T17:57:06.946Z,2.95
2022-11-27T17:59:37.393Z,2.95
2022-11-27T18:02:06.592Z,2.96
2022-11-27T18:04:38.023Z,2.98
2022-11-27T18:07:06.952Z,2.96
2022-11-27T18:09:40.013Z,2.96
2022-11-27T18:12:09.106Z,2.98
2022-11-27T18:14:38.229Z,2.98
2022-11-27T18:17:08.156Z,2.95
2022-11-27T18:19:36.793Z,2.98
2022-11-27T18:22:07.638Z,2.96
2022-11-27T18:24:41.030Z,2.96
2022-11-27T18:27:10.185Z,2.98
2022-11-27T18:29:42.380Z,2.96
2022-11-27T18:32:16.362Z,2.95
2022-11-27T18:34:46.191Z,2.96
2022-11-27T18:37:16.017Z,2.95
2022-11-27T18:39:46.214Z,2.92
2022-11-27T18:42:15.049Z,2.95
2022-11-27T18:44:45.302Z,2.92
2022-11-27T18:47:16.026Z,2.96
2022-11-27T18:49:58.352Z,2.93
2022-11-27T18:52:28.266Z,2.93
2022-11-27T18:54:57.127Z,2.95
2022-11-27T18:57:26.152Z,2.92
2022-11-27T18:59:56.368Z,2.95
2022-11-27T19:02:25.254Z,2.93
2022-11-27T19:04:54.019Z,2.92
2022-11-27T19:07:24.705Z,2.90
2022-11-27T19:09:55.380Z,2.90
2022-11-27T19:12:24.484Z,2.92
2022-11-27T19:14:54.019Z,2.92
2022-11-27T19:17:24.741Z,2.88
2022-11-27T19:19:56.589Z,2.89
2022-11-27T19:22:29.512Z,2.89
2022-11-27T19:24:59.951Z,2.88
2022-11-27T19:27:32.816Z,2.90
2022-11-27T19:30:03.476Z,2.89
2022-11-27T19:32:32.228Z,2.90
2022-11-27T19:35:06.791Z,2.89
2022-11-27T19:37:37.202Z,2.92
2022-11-27T19:40:12.761Z,2.89
2022-11-27T19:42:45.288Z,2.90
2022-11-27T19:45:13.983Z,2.89
2022-11-27T19:47:42.683Z,2.90
2022-11-27T19:50:15.437Z,2.89
2022-11-27T19:52:44.462Z,2.88
2022-11-27T19:55:13.278Z,2.88
2022-11-27T19:57:42.224Z,2.89
2022-11-27T20:00:13.440Z,2.88
2022-11-27T20:02:47.507Z,2.88
2022-11-27T20:05:16.620Z,2.88
2022-11-27T20:07:46.001Z,2.88
2022-11-27T20:10:15.260Z,2.88
2022-11-27T20:12:44.042Z,2.86
2022-11-27T20:15:14.575Z,2.86
2022-11-27T20:17:44.003Z,2.88
2022-11-27T20:20:16.688Z,2.86
2022-11-27T20:22:45.517Z,2.86
2022-11-27T20:25:19.940Z,2.89
2022-11-27T20:27:50.109Z,2.88
2022-11-27T20:30:21.588Z,2.88
2022-11-27T20:32:51.311Z,2.86
2022-11-27T20:35:22.354Z,2.86
2022-11-27T20:37:51.084Z,2.88
2022-11-27T20:40:22.932Z,2.89
2022-11-27T20:42:52.447Z,2.88
2022-11-27T20:45:22.569Z,2.89
2022-11-27T20:47:54.179Z,2.89
2022-11-27T20:50:24.481Z,2.88
2022-11-27T20:52:57.359Z,2.86
2022-11-27T20:55:26.469Z,2.85
2022-11-27T20:57:55.228Z,2.86
2022-11-27T21:00:24.640Z,2.85
2022-11-27T21:02:53.386Z,2.82
2022-11-27T21:05:22.201Z,2.82
2022-11-27T21:07:51.002Z,2.83
2022-11-27T21:10:19.855Z,2.82
2022-11-27T21:12:48.861Z,2.81
2022-11-27T21:15:17.856Z,2.79
2022-11-27T21:17:46.389Z,2.79
2022-11-27T21:20:15.577Z,2.82
2022-11-27T21:22:44.140Z,2.79
2022-11-27T21:25:12.960Z,2.75
2022-11-27T21:27:41.816Z,2.78
2022-11-27T21:30:12.277Z,2.78
2022-11-27T21:32:41.227Z,2.76
2022-11-27T21:35:13.112Z,2.75
2022-11-27T21:37:42.705Z,2.76
2022-11-27T21:40:13.532Z,2.75
2022-11-27T21:42:44.743Z,2.76
2022-11-27T21:45:13.849Z,2.73
2022-11-27T21:47:42.448Z,2.72
2022-11-27T21:50:14.340Z,2.75
2022-11-27T21:52:43.034Z,2.71
2022-11-27T21:55:12.377Z,2.71
2022-11-27T21:57:41.096Z,2.71
2022-11-27T22:00:11.122Z,2.72
2022-11-27T22:02:44.614Z,2.72
2022-11-27T22:05:13.773Z,2.73
2022-11-27T22:07:42.397Z,2.71
2022-11-27T22:10:12.699Z,2.68
2022-11-27T22:12:41.565Z,2.71
2022-11-27T22:15:11.621Z,2.71
2022-11-27T22:17:40.176Z,2.69
2022-11-27T22:20:11.405Z,2.67
2022-11-27T22:22:40.392Z,2.68
2022-11-27T22:25:10.195Z,2.69
2022-11-27T22:27:38.955Z,2.71
2022-11-27T22:30:10.613Z,2.69
2022-11-27T22:32:39.683Z,2.68
2022-11-27T22:35:11.669Z,2.69
2022-11-27T22:37:40.791Z,2.68
2022-11-27T22:40:14.333Z,2.65
2022-11-27T22:42:43.157Z,2.65
2022-11-27T22:45:12.179Z,2.67
2022-11-27T22:47:41.386Z,2.68
2022-11-27T22:50:12.046Z,2.68
2022-11-27T22:52:40.771Z,2.65
2022-11-27T22:55:12.120Z,2.65
2022-11-27T22:57:43.121Z,2.65
2022-11-27T23:00:14.818Z,2.61
2022-11-27T23:02:47.013Z,2.62
2022-11-27T23:05:15.936Z,2.62
2022-11-27T23:07:44.543Z,2.64
2022-11-27T23:10:13.447Z,2.61
2022-11-27T23:12:41.972Z,2.62
2022-11-27T23:15:11.785Z,2.61
2022-11-27T23:17:43.072Z,2.60
2022-11-27T23:20:14.863Z,2.60
2022-11-27T23:22:44.078Z,2.60
2022-11-27T23:25:15.276Z,2.57
2022-11-27T23:27:44.434Z,2.58
2022-11-27T23:30:15.306Z,2.55
2022-11-27T23:32:44.101Z,2.58
2022-11-27T23:35:15.776Z,2.57
2022-11-27T23:37:44.776Z,2.58
2022-11-27T23:40:14.487Z,2.54
2022-11-27T23:42:46.232Z,2.54
2022-11-27T23:45:15.301Z,2.53
2022-11-27T23:47:43.923Z,2.51
2022-11-27T23:50:13.395Z,2.51
2022-11-27T23:52:41.927Z,2.51
2022-11-27T23:55:10.652Z,2.47
2022-11-27T23:57:39.230Z,2.47
